createdAt,value
2022-10-30T00:01:10.842Z,8.90
2022-10-30T00:06:08.446Z,8.80
2022-10-30T00:11:08.939Z,8.70
2022-10-30T00:16:08.477Z,8.70
2022-10-30T00:21:11.935Z,8.70
2022-10-30T00:26:10.317Z,8.60
2022-10-30T00:31:07.808Z,8.60
2022-10-30T00:36:05.521Z,8.50
2022-10-30T00:41:02.833Z,8.50
2022-10-30T00:46:06.943Z,8.50
2022-10-30T00:51:07.113Z,8.50
2022-10-30T00:56:08.648Z,8.50
2022-10-30T01:01:11.844Z,8.40
2022-10-30T01:06:12.666Z,8.30
2022-10-30T01:11:10.042Z,8.30
2022-10-30T01:16:36.207Z,8.30
2022-10-30T01:22:17.023Z,8.30
2022-10-30T01:27:29.617Z,8.20
2022-10-30T01:32:33.202Z,8.20
2022-10-30T01:38:18.411Z,8.30
2022-10-30T01:43:16.307Z,8.30
2022-10-30T01:48:51.978Z,8.30
2022-10-30T01:54:24.943Z,8.20
2022-10-30T01:59:45.237Z,8.10
2022-10-30T02:04:42.862Z,8.00
2022-10-30T02:09:40.556Z,8.10
2022-10-30T02:14:43.686Z,8.10
2022-10-30T02:19:41.148Z,8.20
2022-10-30T02:24:38.598Z,8.00
2022-10-30T02:29:35.958Z,7.90
2022-10-30T02:34:33.378Z,7.90
2022-10-30T02:39:31.031Z,7.90
2022-10-30T02:44:28.572Z,8.00
2022-10-30T02:49:26.098Z,7.90
2022-10-30T02:54:23.314Z,7.90
2022-10-30T02:59:20.883Z,7.80
2022-10-30T03:04:18.182Z,7.80
2022-10-30T03:09:15.335Z,7.80
2022-10-30T03:14:12.763Z,7.70
2022-10-30T03:19:20.042Z,7.70
2022-10-30T03:24:17.447Z,7.70
2022-10-30T03:29:15.422Z,7.60
2022-10-30T03:34:13.241Z,7.60
2022-10-30T03:39:20.398Z,7.50
2022-10-30T03:44:18.062Z,7.50
2022-10-30T03:49:15.409Z,7.50
2022-10-30T03:54:12.885Z,7.50
2022-10-30T03:59:10.265Z,7.60
2022-10-30T04:04:07.631Z,7.60
2022-10-30T04:09:04.856Z,7.50
2022-10-30T04:14:02.201Z,7.50
2022-10-30T04:19:00.230Z,7.40
2022-10-30T04:23:57.896Z,7.20
2022-10-30T04:28:55.137Z,7.30
2022-10-30T04:33:52.461Z,7.20
2022-10-30T04:38:50.540Z,7.30
2022-10-30T04:43:50.177Z,7.40
2022-10-30T04:48:47.941Z,7.40
2022-10-30T04:53:45.375Z,7.20
2022-10-30T04:58:47.128Z,7.10
2022-10-30T05:03:50.666Z,7.00
2022-10-30T05:08:55.935Z,7.00
2022-10-30T05:13:54.291Z,7.10
2022-10-30T05:18:53.100Z,7.10
2022-10-30T05:23:51.677Z,7.20
2022-10-30T05:28:49.651Z,7.10
2022-10-30T05:33:49.771Z,7.10
2022-10-30T05:38:48.057Z,7.00
2022-10-30T05:43:45.311Z,6.90
2022-10-30T05:48:42.526Z,6.90
2022-10-30T05:53:39.907Z,7.10
2022-10-30T05:58:37.165Z,7.10
2022-10-30T06:03:34.590Z,7.10
2022-10-30T06:08:32.015Z,7.20
2022-10-30T06:13:29.369Z,7.20
2022-10-30T06:18:26.958Z,7.40
2022-10-30T06:23:24.209Z,7.50
2022-10-30T06:28:21.474Z,7.60
2022-10-30T06:33:18.864Z,7.70
2022-10-30T06:38:17.247Z,7.80
2022-10-30T06:43:14.865Z,8.10
2022-10-30T06:48:12.058Z,8.30
2022-10-30T06:53:09.428Z,8.50
2022-10-30T06:58:06.998Z,8.70
2022-10-30T07:03:06.778Z,9.60
2022-10-30T07:08:04.334Z,11.10
2022-10-30T07:13:02.368Z,12.20
2022-10-30T07:18:03.568Z,13.20
2022-10-30T07:23:02.024Z,13.90
2022-10-30T07:27:59.567Z,15.10
2022-10-30T07:33:02.105Z,16.30
2022-10-30T07:38:07.824Z,16.70
2022-10-30T07:43:05.794Z,16.10
2022-10-30T07:48:03.506Z,15.70
2022-10-30T07:53:00.922Z,16.10
2022-10-30T07:57:58.776Z,16.90
2022-10-30T08:02:58.558Z,17.70
2022-10-30T08:07:56.095Z,18.40
2022-10-30T08:12:53.886Z,18.30
2022-10-30T08:17:51.631Z,19.20
2022-10-30T08:22:53.896Z,19.40
2022-10-30T08:27:53.605Z,19.90
2022-10-30T08:32:50.901Z,20.50
2022-10-30T08:37:48.103Z,20.60
2022-10-30T08:42:52.114Z,20.90
2022-10-30T08:47:56.645Z,21.10
2022-10-30T08:52:54.868Z,21.90
2022-10-30T08:57:52.569Z,22.30
2022-10-30T09:02:50.119Z,22.80
2022-10-30T09:07:48.369Z,23.40
2022-10-30T09:12:45.954Z,23.40
2022-10-30T09:17:43.493Z,23.20
2022-10-30T09:22:42.136Z,22.60
2022-10-30T09:27:40.301Z,22.80
2022-10-30T09:32:37.580Z,22.40
2022-10-30T09:37:38.807Z,22.30
2022-10-30T09:42:46.011Z,22.40
2022-10-30T09:47:58.604Z,22.50
2022-10-30T09:53:39.427Z,22.90
2022-10-30T09:58:45.957Z,22.60
2022-10-30T10:04:27.628Z,21.70
2022-10-30T10:09:30.590Z,21.50
2022-10-30T10:14:36.450Z,21.40
2022-10-30T10:19:40.792Z,21.10
2022-10-30T10:24:42.655Z,20.80
2022-10-30T10:30:13.349Z,19.80
2022-10-30T10:35:19.494Z,19.20
2022-10-30T10:40:47.838Z,18.80
2022-10-30T10:46:15.813Z,18.30
2022-10-30T10:51:27.974Z,18.00
2022-10-30T10:56:38.126Z,18.00
2022-10-30T11:01:46.251Z,18.10
2022-10-30T11:06:49.721Z,18.20
2022-10-30T11:11:48.962Z,18.10
2022-10-30T11:17:23.877Z,17.80
2022-10-30T11:22:33.992Z,17.70
2022-10-30T11:27:31.172Z,17.90
2022-10-30T11:32:33.881Z,18.20
2022-10-30T11:37:33.669Z,18.20
2022-10-30T11:42:31.614Z,18.20
2022-10-30T11:47:37.400Z,18.00
2022-10-30T11:52:42.020Z,18.00
2022-10-30T11:57:50.097Z,17.70
2022-10-30T12:02:54.126Z,17.60
2022-10-30T12:07:54.686Z,17.70
2022-10-30T12:12:52.791Z,17.50
2022-10-30T12:17:55.392Z,17.40
2022-10-30T12:22:52.939Z,17.40
2022-10-30T12:27:58.606Z,17.60
2022-10-30T12:33:02.578Z,17.70
2022-10-30T12:38:02.595Z,17.60
2022-10-30T12:43:27.680Z,17.70
2022-10-30T12:48:34.200Z,17.80
2022-10-30T12:53:51.005Z,17.90
2022-10-30T12:58:56.805Z,17.80
2022-10-30T13:04:02.260Z,17.90
2022-10-30T13:09:15.132Z,17.80
2022-10-30T13:14:19.558Z,17.80
2022-10-30T13:19:16.950Z,17.90
2022-10-30T13:24:24.200Z,17.90
2022-10-30T13:29:37.806Z,17.90
2022-10-30T13:35:00.825Z,17.90
2022-10-30T13:40:14.703Z,17.90
2022-10-30T13:46:06.012Z,17.90
2022-10-30T13:51:27.338Z,17.90
2022-10-30T13:56:24.733Z,17.90
2022-10-30T14:01:43.426Z,17.80
2022-10-30T14:07:07.138Z,17.70
2022-10-30T14:12:43.018Z,17.60
2022-10-30T14:18:12.074Z,17.60
2022-10-30T14:23:16.241Z,17.60
2022-10-30T14:28:21.284Z,17.60
2022-10-30T14:33:40.747Z,17.60
2022-10-30T14:38:38.189Z,17.50
2022-10-30T14:43:46.203Z,17.50
2022-10-30T14:49:15.481Z,17.40
2022-10-30T14:54:24.655Z,17.20
2022-10-30T14:59:40.125Z,17.00
2022-10-30T15:05:05.473Z,16.70
2022-10-30T15:10:19.161Z,16.50
2022-10-30T15:15:21.559Z,16.30
2022-10-30T15:20:24.735Z,16.00
2022-10-30T15:25:24.509Z,15.80
2022-10-30T15:30:24.791Z,15.50
2022-10-30T15:35:27.259Z,15.30
2022-10-30T15:40:24.899Z,15.00
2022-10-30T15:45:34.695Z,14.80
2022-10-30T15:50:34.221Z,14.60
2022-10-30T15:55:33.261Z,14.40
2022-10-30T16:00:38.192Z,14.20
2022-10-30T16:05:36.378Z,14.00
2022-10-30T16:10:35.934Z,13.90
2022-10-30T16:15:39.990Z,13.70
2022-10-30T16:20:40.719Z,13.60
2022-10-30T16:25:43.071Z,13.50
2022-10-30T16:30:44.123Z,13.30
2022-10-30T16:35:41.942Z,13.20
2022-10-30T16:40:39.803Z,13.10
2022-10-30T16:45:47.196Z,13.00
2022-10-30T16:50:44.518Z,12.90
2022-10-30T16:55:41.857Z,12.70
2022-10-30T17:00:42.280Z,12.60
2022-10-30T17:05:43.821Z,12.50
2022-10-30T17:11:02.497Z,12.40
2022-10-30T17:16:21.826Z,12.40
2022-10-30T17:21:22.793Z,12.30
2022-10-30T17:26:20.575Z,12.20
2022-10-30T17:31:36.636Z,12.10
2022-10-30T17:36:33.881Z,12.10
2022-10-30T17:41:31.178Z,12.00
2022-10-30T17:46:28.956Z,11.90
2022-10-30T17:51:26.741Z,11.80
2022-10-30T17:56:30.284Z,11.80
2022-10-30T18:01:28.066Z,11.80
2022-10-30T18:06:27.854Z,11.70
2022-10-30T18:11:27.288Z,11.70
2022-10-30T18:16:25.401Z,11.50
2022-10-30T18:21:24.365Z,11.50
2022-10-30T18:26:25.080Z,11.50
2022-10-30T18:31:24.656Z,11.30
2022-10-30T18:36:24.850Z,11.30
2022-10-30T18:41:30.844Z,11.20
2022-10-30T18:46:32.868Z,11.20
2022-10-30T18:51:32.293Z,11.20
2022-10-30T18:56:32.775Z,11.10
2022-10-30T19:01:34.280Z,10.90
2022-10-30T19:06:34.595Z,10.80
2022-10-30T19:11:32.360Z,10.80
2022-10-30T19:16:29.805Z,10.90
2022-10-30T19:21:28.159Z,10.80
2022-10-30T19:26:25.533Z,10.70
2022-10-30T19:31:22.859Z,10.50
2022-10-30T19:36:30.634Z,10.50
2022-10-30T19:41:28.164Z,10.50
2022-10-30T19:46:25.956Z,10.50
2022-10-30T19:51:23.118Z,10.40
2022-10-30T19:56:20.966Z,10.40
2022-10-30T20:01:18.277Z,10.30
2022-10-30T20:06:16.054Z,10.30
2022-10-30T20:11:13.329Z,10.30
2022-10-30T20:16:11.548Z,10.20
2022-10-30T20:21:13.248Z,10.20
2022-10-30T20:26:24.074Z,10.10
2022-10-30T20:31:21.284Z,10.10
2022-10-30T20:36:19.085Z,10.10
2022-10-30T20:41:25.704Z,10.00
2022-10-30T20:46:23.157Z,10.00
2022-10-30T20:51:20.632Z,9.80
2022-10-30T20:56:17.981Z,9.80
2022-10-30T21:01:15.331Z,9.70
2022-10-30T21:06:13.549Z,9.70
2022-10-30T21:11:10.809Z,9.60
2022-10-30T21:16:09.736Z,9.60
2022-10-30T21:21:11.722Z,9.60
2022-10-30T21:26:13.515Z,9.70
2022-10-30T21:31:13.446Z,9.60
2022-10-30T21:36:15.505Z,9.60
2022-10-30T21:41:18.076Z,9.70
2022-10-30T21:46:15.228Z,9.50
2022-10-30T21:51:17.847Z,9.30
2022-10-30T21:56:18.726Z,9.30
2022-10-30T22:01:17.470Z,9.40
2022-10-30T22:06:16.928Z,9.30
2022-10-30T22:11:15.560Z,9.30
2022-10-30T22:16:14.861Z,9.20
2022-10-30T22:21:18.717Z,9.10
2022-10-30T22:26:20.218Z,9.00
2022-10-30T22:31:19.122Z,8.90
2022-10-30T22:36:22.534Z,9.00
2022-10-30T22:41:22.243Z,9.00
2022-10-30T22:46:19.566Z,8.90
2022-10-30T22:51:18.446Z,8.80
2022-10-30T22:56:21.961Z,8.90
2022-10-30T23:01:26.890Z,8.90
2022-10-30T23:06:25.107Z,9.00
2022-10-30T23:11:22.875Z,8.90
2022-10-30T23:16:24.330Z,8.90
2022-10-30T23:21:25.114Z,8.80
2022-10-30T23:26:25.269Z,8.70
2022-10-30T23:31:28.930Z,8.60
2022-10-30T23:36:27.197Z,8.60
2022-10-30T23:41:27.088Z,8.60
2022-10-30T23:46:24.490Z,8.50
2022-10-30T23:51:21.906Z,8.60
2022-10-30T23:56:19.529Z,8.50
